sensor_id;sensor_type;location;lat;lon;timestamp;pressure;altitude;pressure_sealevel;temperature;humidity
28797;BME280;24974;54.444;18.560;2022-08-19T00:01:51;100944.09;;;22.34;80.08
28797;BME280;24974;54.444;18.560;2022-08-19T00:04:26;100944.75;;;22.57;79.41
28797;BME280;24974;54.444;18.560;2022-08-19T00:06:58;100935.22;;;22.66;79.01
28797;BME280;24974;54.444;18.560;2022-08-19T00:09:30;100932.75;;;22.57;79.22
28797;BME280;24974;54.444;18.560;2022-08-19T00:12:01;100923.53;;;22.56;79.23
28797;BME280;24974;54.444;18.560;2022-08-19T00:14:32;100923.25;;;22.69;78.43
28797;BME280;24974;54.444;18.560;2022-08-19T00:17:03;100931.16;;;22.59;79.25
28797;BME280;24974;54.444;18.560;2022-08-19T00:19:36;100927.09;;;22.53;79.47
28797;BME280;24974;54.444;18.560;2022-08-19T00:22:07;100929.41;;;22.44;79.78
28797;BME280;24974;54.444;18.560;2022-08-19T00:24:39;100943.06;;;22.49;79.51
28797;BME280;24974;54.444;18.560;2022-08-19T00:27:11;100938.91;;;22.32;79.93
28797;BME280;24974;54.444;18.560;2022-08-19T00:29:42;100942.97;;;22.39;79.88
28797;BME280;24974;54.444;18.560;2022-08-19T00:32:13;100948.81;;;22.26;80.66
28797;BME280;24974;54.444;18.560;2022-08-19T00:34:44;100950.09;;;22.32;80.23
28797;BME280;24974;54.444;18.560;2022-08-19T00:37:15;100955.19;;;22.23;80.28
28797;BME280;24974;54.444;18.560;2022-08-19T00:39:46;100949.22;;;22.28;80.41
28797;BME280;24974;54.444;18.560;2022-08-19T00:42:19;100942.19;;;22.42;80.10
28797;BME280;24974;54.444;18.560;2022-08-19T00:44:51;100959.47;;;22.51;79.36
28797;BME280;24974;54.444;18.560;2022-08-19T00:47:22;100955.53;;;22.55;79.22
28797;BME280;24974;54.444;18.560;2022-08-19T00:49:56;100957.50;;;22.51;79.43
28797;BME280;24974;54.444;18.560;2022-08-19T00:52:33;100970.38;;;22.59;79.47
28797;BME280;24974;54.444;18.560;2022-08-19T00:55:07;100966.78;;;22.59;79.08
28797;BME280;24974;54.444;18.560;2022-08-19T00:57:47;100962.78;;;22.60;79.50
28797;BME280;24974;54.444;18.560;2022-08-19T01:00:20;100968.81;;;22.62;79.20
28797;BME280;24974;54.444;18.560;2022-08-19T01:02:52;100959.97;;;22.60;79.67
28797;BME280;24974;54.444;18.560;2022-08-19T01:05:26;100956.84;;;22.65;79.48
28797;BME280;24974;54.444;18.560;2022-08-19T01:08:00;100963.25;;;22.66;79.49
28797;BME280;24974;54.444;18.560;2022-08-19T01:10:39;100964.03;;;22.66;79.15
28797;BME280;24974;54.444;18.560;2022-08-19T01:13:13;100962.84;;;22.67;79.13
28797;BME280;24974;54.444;18.560;2022-08-19T01:15:51;100967.06;;;22.47;80.44
28797;BME280;24974;54.444;18.560;2022-08-19T01:18:25;100971.53;;;22.55;79.82
28797;BME280;24974;54.444;18.560;2022-08-19T01:21:02;100959.97;;;22.60;79.68
28797;BME280;24974;54.444;18.560;2022-08-19T01:23:34;100962.03;;;22.63;79.39
28797;BME280;24974;54.444;18.560;2022-08-19T01:26:21;100958.50;;;22.73;78.92
28797;BME280;24974;54.444;18.560;2022-08-19T01:28:55;100963.25;;;22.66;79.02
28797;BME280;24974;54.444;18.560;2022-08-19T01:31:28;100959.16;;;22.56;79.34
28797;BME280;24974;54.444;18.560;2022-08-19T01:34:01;100958.03;;;22.64;79.33
28797;BME280;24974;54.444;18.560;2022-08-19T01:36:41;100958.03;;;22.64;78.97
28797;BME280;24974;54.444;18.560;2022-08-19T01:39:20;100962.25;;;22.47;79.71
28797;BME280;24974;54.444;18.560;2022-08-19T01:41:52;100949.72;;;22.38;80.21
28797;BME280;24974;54.444;18.560;2022-08-19T01:44:24;100950.19;;;22.40;79.76
28797;BME280;24974;54.444;18.560;2022-08-19T01:46:55;100953.28;;;22.31;80.04
28797;BME280;24974;54.444;18.560;2022-08-19T01:49:26;100957.59;;;22.25;80.40
28797;BME280;24974;54.444;18.560;2022-08-19T01:52:00;100952.91;;;22.32;80.23
28797;BME280;24974;54.444;18.560;2022-08-19T01:54:32;100950.19;;;22.43;79.44
28797;BME280;24974;54.444;18.560;2022-08-19T01:57:07;100948.94;;;22.37;79.56
28797;BME280;24974;54.444;18.560;2022-08-19T01:59:40;100948.91;;;22.33;79.86
28797;BME280;24974;54.444;18.560;2022-08-19T02:02:12;100950.13;;;22.36;79.63
28797;BME280;24974;54.444;18.560;2022-08-19T02:04:43;100952.47;;;22.30;79.83
28797;BME280;24974;54.444;18.560;2022-08-19T02:07:14;100950.03;;;22.29;79.80
28797;BME280;24974;54.444;18.560;2022-08-19T02:09:45;100948.50;;;22.35;79.65
28797;BME280;24974;54.444;18.560;2022-08-19T02:12:15;100945.38;;;22.40;79.51
28797;BME280;24974;54.444;18.560;2022-08-19T02:14:46;100946.19;;;22.41;79.19
28797;BME280;24974;54.444;18.560;2022-08-19T02:17:17;100950.13;;;22.36;79.32
28797;BME280;24974;54.444;18.560;2022-08-19T02:19:48;100947.69;;;22.31;79.30
28797;BME280;24974;54.444;18.560;2022-08-19T02:22:19;100952.47;;;22.30;79.12
28797;BME280;24974;54.444;18.560;2022-08-19T02:24:52;100946.13;;;22.37;78.78
28797;BME280;24974;54.444;18.560;2022-08-19T02:27:23;100948.88;;;22.30;78.43
28797;BME280;24974;54.444;18.560;2022-08-19T02:29:54;100949.13;;;22.18;78.74
28797;BME280;24974;54.444;18.560;2022-08-19T02:32:25;100944.09;;;22.00;79.34
28797;BME280;24974;54.444;18.560;2022-08-19T02:34:56;100948.09;;;22.03;78.82
28797;BME280;24974;54.444;18.560;2022-08-19T02:37:27;100944.75;;;22.20;77.89
28797;BME280;24974;54.444;18.560;2022-08-19T02:40:16;100944.91;;;22.04;78.70
28797;BME280;24974;54.444;18.560;2022-08-19T02:42:49;100940.25;;;22.12;78.49
28797;BME280;24974;54.444;18.560;2022-08-19T02:45:20;100934.81;;;21.93;78.68
28797;BME280;24974;54.444;18.560;2022-08-19T02:47:51;100933.28;;;21.99;78.87
28797;BME280;24974;54.444;18.560;2022-08-19T02:50:22;100932.94;;;22.04;78.48
28797;BME280;24974;54.444;18.560;2022-08-19T02:52:53;100943.38;;;22.07;77.87
28797;BME280;24974;54.444;18.560;2022-08-19T02:55:24;100940.06;;;21.98;77.72
28797;BME280;24974;54.444;18.560;2022-08-19T02:57:55;100946.91;;;22.04;77.54
28797;BME280;24974;54.444;18.560;2022-08-19T03:00:27;100956.22;;;22.08;77.53
28797;BME280;24974;54.444;18.560;2022-08-19T03:02:58;100959.13;;;21.89;77.72
28797;BME280;24974;54.444;18.560;2022-08-19T03:05:30;100958.94;;;21.74;78.82
28797;BME280;24974;54.444;18.560;2022-08-19T03:08:02;100955.28;;;21.70;78.73
28797;BME280;24974;54.444;18.560;2022-08-19T03:10:40;100952.19;;;21.49;79.62
28797;BME280;24974;54.444;18.560;2022-08-19T03:13:14;100953.06;;;21.83;77.86
28797;BME280;24974;54.444;18.560;2022-08-19T03:15:47;100944.22;;;21.81;77.38
28797;BME280;24974;54.444;18.560;2022-08-19T03:18:18;100953.16;;;21.90;77.23
28797;BME280;24974;54.444;18.560;2022-08-19T03:20:51;100952.50;;;21.70;77.88
28797;BME280;24974;54.444;18.560;2022-08-19T03:23:26;100950.50;;;21.71;77.72
28797;BME280;24974;54.444;18.560;2022-08-19T03:25:57;100952.09;;;21.72;77.53
28797;BME280;24974;54.444;18.560;2022-08-19T03:28:28;100946.69;;;21.86;76.95
28797;BME280;24974;54.444;18.560;2022-08-19T03:31:02;100951.50;;;21.86;76.66
28797;BME280;24974;54.444;18.560;2022-08-19T03:33:34;100952.00;;;21.95;75.93
28797;BME280;24974;54.444;18.560;2022-08-19T03:36:09;100957.97;;;21.90;76.50
28797;BME280;24974;54.444;18.560;2022-08-19T03:38:44;100959.19;;;21.92;76.17
28797;BME280;24974;54.444;18.560;2022-08-19T03:41:20;100955.69;;;22.02;76.25
28797;BME280;24974;54.444;18.560;2022-08-19T03:43:52;100959.53;;;22.21;75.74
28797;BME280;24974;54.444;18.560;2022-08-19T03:46:27;100953.91;;;22.17;75.68
28797;BME280;24974;54.444;18.560;2022-08-19T03:49:00;100954.72;;;22.18;75.89
28797;BME280;24974;54.444;18.560;2022-08-19T03:51:36;100957.28;;;22.00;75.98
28797;BME280;24974;54.444;18.560;2022-08-19T03:54:10;100955.06;;;21.83;76.49
28797;BME280;24974;54.444;18.560;2022-08-19T03:56:42;100953.59;;;21.92;76.21
28797;BME280;24974;54.444;18.560;2022-08-19T03:59:20;100957.59;;;21.95;76.30
28797;BME280;24974;54.444;18.560;2022-08-19T04:01:57;100962.88;;;22.00;76.15
28797;BME280;24974;54.444;18.560;2022-08-19T04:04:28;100957.06;;;21.82;76.98
28797;BME280;24974;54.444;18.560;2022-08-19T04:06:59;100961.00;;;22.08;75.93
28797;BME280;24974;54.444;18.560;2022-08-19T04:09:32;100956.38;;;22.22;75.49
28797;BME280;24974;54.444;18.560;2022-08-19T04:12:04;100960.72;;;22.20;75.61
28797;BME280;24974;54.444;18.560;2022-08-19T04:14:36;100963.59;;;22.23;75.45
28797;BME280;24974;54.444;18.560;2022-08-19T04:17:06;100969.38;;;22.41;74.72
28797;BME280;24974;54.444;18.560;2022-08-19T04:19:37;100970.03;;;22.27;75.55
28797;BME280;24974;54.444;18.560;2022-08-19T04:22:09;100967.44;;;22.12;75.71
28797;BME280;24974;54.444;18.560;2022-08-19T04:24:41;100964.81;;;22.26;75.56
28797;BME280;24974;54.444;18.560;2022-08-19T04:27:12;100967.19;;;22.24;75.78
28797;BME280;24974;54.444;18.560;2022-08-19T04:29:43;100962.94;;;22.37;75.56
28797;BME280;24974;54.444;18.560;2022-08-19T04:32:14;100966.03;;;22.62;74.42
28797;BME280;24974;54.444;18.560;2022-08-19T04:34:45;100961.31;;;22.73;74.15
28797;BME280;24974;54.444;18.560;2022-08-19T04:37:16;100959.50;;;22.92;73.65
28797;BME280;24974;54.444;18.560;2022-08-19T04:39:47;100957.09;;;22.90;73.51
28797;BME280;24974;54.444;18.560;2022-08-19T04:42:37;100959.22;;;23.04;73.27
28797;BME280;24974;54.444;18.560;2022-08-19T04:45:13;100964.09;;;23.14;73.19
28797;BME280;24974;54.444;18.560;2022-08-19T04:47:44;100963.47;;;23.35;72.41
28797;BME280;24974;54.444;18.560;2022-08-19T04:50:15;100962.28;;;23.36;72.16
28797;BME280;24974;54.444;18.560;2022-08-19T04:52:50;100960.72;;;23.49;72.02
28797;BME280;24974;54.444;18.560;2022-08-19T04:55:21;100962.91;;;23.73;71.71
28797;BME280;24974;54.444;18.560;2022-08-19T04:57:53;100968.59;;;23.88;70.81
28797;BME280;24974;54.444;18.560;2022-08-19T05:00:24;100961.38;;;23.87;70.34
28797;BME280;24974;54.444;18.560;2022-08-19T05:02:55;100964.63;;;23.92;70.82
28797;BME280;24974;54.444;18.560;2022-08-19T05:05:26;100964.31;;;24.08;70.06
28797;BME280;24974;54.444;18.560;2022-08-19T05:07:57;100968.78;;;24.23;70.06
28797;BME280;24974;54.444;18.560;2022-08-19T05:10:28;100980.41;;;24.29;69.60
28797;BME280;24974;54.444;18.560;2022-08-19T05:12:58;100977.69;;;24.54;69.25
28797;BME280;24974;54.444;18.560;2022-08-19T05:15:30;100975.34;;;24.63;69.19
28797;BME280;24974;54.444;18.560;2022-08-19T05:18:01;100974.16;;;24.78;68.90
28797;BME280;24974;54.444;18.560;2022-08-19T05:20:50;100975.38;;;24.88;68.15
28797;BME280;24974;54.444;18.560;2022-08-19T05:23:39;100972.97;;;25.08;68.52
28797;BME280;24974;54.444;18.560;2022-08-19T05:26:11;100972.97;;;25.22;68.01
28797;BME280;24974;54.444;18.560;2022-08-19T05:28:42;100971.38;;;25.43;67.50
28797;BME280;24974;54.444;18.560;2022-08-19T05:31:13;100964.94;;;25.17;67.41
28797;BME280;24974;54.444;18.560;2022-08-19T05:33:44;100956.88;;;25.41;66.82
28797;BME280;24974;54.444;18.560;2022-08-19T05:36:14;100963.75;;;25.15;67.83
28797;BME280;24974;54.444;18.560;2022-08-19T05:38:46;100964.50;;;25.40;65.98
28797;BME280;24974;54.444;18.560;2022-08-19T05:41:18;100969.38;;;25.22;64.87
28797;BME280;24974;54.444;18.560;2022-08-19T05:43:49;100965.34;;;25.19;64.23
28797;BME280;24974;54.444;18.560;2022-08-19T05:46:22;100977.78;;;24.97;65.86
28797;BME280;24974;54.444;18.560;2022-08-19T05:48:55;100977.81;;;25.29;64.65
28797;BME280;24974;54.444;18.560;2022-08-19T05:51:28;100976.19;;;25.21;64.70
28797;BME280;24974;54.444;18.560;2022-08-19T05:54:01;100986.63;;;25.34;63.95
28797;BME280;24974;54.444;18.560;2022-08-19T05:56:34;100985.03;;;25.23;64.62
28797;BME280;24974;54.444;18.560;2022-08-19T05:59:10;100985.44;;;25.25;64.94
28797;BME280;24974;54.444;18.560;2022-08-19T06:01:45;100989.47;;;25.27;64.84
28797;BME280;24974;54.444;18.560;2022-08-19T06:04:18;100985.84;;;25.09;65.24
28797;BME280;24974;54.444;18.560;2022-08-19T06:06:52;100997.50;;;25.22;64.24
28797;BME280;24974;54.444;18.560;2022-08-19T06:09:24;100994.25;;;25.34;63.30
28797;BME280;24974;54.444;18.560;2022-08-19T06:11:57;100995.88;;;25.38;62.77
28797;BME280;24974;54.444;18.560;2022-08-19T06:14:33;100996.25;;;25.58;62.42
28797;BME280;24974;54.444;18.560;2022-08-19T06:17:05;101006.69;;;25.58;62.74
28797;BME280;24974;54.444;18.560;2022-08-19T06:19:35;100996.63;;;25.85;62.03
28797;BME280;24974;54.444;18.560;2022-08-19T06:22:09;100992.53;;;26.08;60.60
28797;BME280;24974;54.444;18.560;2022-08-19T06:24:42;100991.72;;;26.07;60.23
28797;BME280;24974;54.444;18.560;2022-08-19T06:27:13;100987.22;;;26.20;59.37
28797;BME280;24974;54.444;18.560;2022-08-19T06:29:44;100993.22;;;26.33;59.08
28797;BME280;24974;54.444;18.560;2022-08-19T06:32:17;100989.72;;;26.08;58.27
28797;BME280;24974;54.444;18.560;2022-08-19T06:34:49;100994.78;;;26.45;57.72
28797;BME280;24974;54.444;18.560;2022-08-19T06:37:20;100992.41;;;26.40;57.07
28797;BME280;24974;54.444;18.560;2022-08-19T06:39:52;100990.38;;;26.44;57.79
28797;BME280;24974;54.444;18.560;2022-08-19T06:42:22;100989.94;;;26.45;57.40
28797;BME280;24974;54.444;18.560;2022-08-19T06:44:54;100988.78;;;26.39;57.95
28797;BME280;24974;54.444;18.560;2022-08-19T06:47:25;100989.47;;;26.61;56.92
28797;BME280;24974;54.444;18.560;2022-08-19T06:49:56;100990.03;;;26.94;56.72
28797;BME280;24974;54.444;18.560;2022-08-19T06:52:34;100978.47;;;26.77;56.90
28797;BME280;24974;54.444;18.560;2022-08-19T06:55:06;100980.16;;;26.68;57.08
28797;BME280;24974;54.444;18.560;2022-08-19T06:57:37;100979.16;;;26.96;56.43
28797;BME280;24974;54.444;18.560;2022-08-19T07:00:09;100977.38;;;27.20;55.10
28797;BME280;24974;54.444;18.560;2022-08-19T07:02:44;100975.69;;;27.26;55.15
28797;BME280;24974;54.444;18.560;2022-08-19T07:05:16;100972.13;;;27.22;54.41
28797;BME280;24974;54.444;18.560;2022-08-19T07:07:48;100974.66;;;27.50;53.71
28797;BME280;24974;54.444;18.560;2022-08-19T07:10:19;100980.47;;;27.36;54.02
28797;BME280;24974;54.444;18.560;2022-08-19T07:12:50;100973.47;;;27.51;53.27
28797;BME280;24974;54.444;18.560;2022-08-19T07:15:21;100976.06;;;27.73;52.71
28797;BME280;24974;54.444;18.560;2022-08-19T07:17:52;100974.75;;;28.15;53.22
28797;BME280;24974;54.444;18.560;2022-08-19T07:20:23;100976.72;;;27.87;55.18
28797;BME280;24974;54.444;18.560;2022-08-19T07:22:54;100975.41;;;27.96;54.90
28797;BME280;24974;54.444;18.560;2022-08-19T07:25:25;100973.84;;;28.22;54.18
28797;BME280;24974;54.444;18.560;2022-08-19T07:27:56;100979.41;;;28.29;53.65
28797;BME280;24974;54.444;18.560;2022-08-19T07:30:27;100975.66;;;28.08;53.80
28797;BME280;24974;54.444;18.560;2022-08-19T07:32:58;100987.69;;;28.16;53.76
28797;BME280;24974;54.444;18.560;2022-08-19T07:35:29;100980.44;;;28.46;53.61
28797;BME280;24974;54.444;18.560;2022-08-19T07:38:02;100972.91;;;28.35;53.64
28797;BME280;24974;54.444;18.560;2022-08-19T07:40:34;100981.03;;;28.60;53.95
28797;BME280;24974;54.444;18.560;2022-08-19T07:43:05;100972.28;;;28.51;54.12
28797;BME280;24974;54.444;18.560;2022-08-19T07:45:36;100968.50;;;28.61;53.54
28797;BME280;24974;54.444;18.560;2022-08-19T07:48:06;100971.91;;;28.76;53.07
28797;BME280;24974;54.444;18.560;2022-08-19T07:50:38;100969.63;;;28.94;53.62
28797;BME280;24974;54.444;18.560;2022-08-19T07:53:09;100970.78;;;28.70;54.06
28797;BME280;24974;54.444;18.560;2022-08-19T07:55:41;100967.84;;;28.77;54.12
28797;BME280;24974;54.444;18.560;2022-08-19T07:58:14;100959.63;;;28.59;54.97
28797;BME280;24974;54.444;18.560;2022-08-19T08:00:47;100962.25;;;29.01;53.90
28797;BME280;24974;54.444;18.560;2022-08-19T08:03:20;100966.88;;;28.87;53.80
28797;BME280;24974;54.444;18.560;2022-08-19T08:06:13;100971.06;;;29.30;53.30
28797;BME280;24974;54.444;18.560;2022-08-19T08:09:04;100976.47;;;29.20;53.33
28797;BME280;24974;54.444;18.560;2022-08-19T08:11:45;100969.06;;;29.03;53.37
28797;BME280;24974;54.444;18.560;2022-08-19T08:14:23;100969.25;;;28.92;54.03
28797;BME280;24974;54.444;18.560;2022-08-19T08:16:55;100974.44;;;29.21;53.46
28797;BME280;24974;54.444;18.560;2022-08-19T08:19:27;100968.69;;;29.01;54.20
28797;BME280;24974;54.444;18.560;2022-08-19T08:22:00;100970.97;;;29.10;54.22
28797;BME280;24974;54.444;18.560;2022-08-19T08:24:31;100975.97;;;29.02;53.82
28797;BME280;24974;54.444;18.560;2022-08-19T08:27:02;100964.03;;;28.87;53.55
28797;BME280;24974;54.444;18.560;2022-08-19T08:29:34;100959.41;;;29.24;53.47
28797;BME280;24974;54.444;18.560;2022-08-19T08:32:07;100963.84;;;29.02;53.79
28797;BME280;24974;54.444;18.560;2022-08-19T08:34:38;100970.63;;;29.08;54.19
28797;BME280;24974;54.444;18.560;2022-08-19T08:37:09;100957.19;;;29.35;53.55
28797;BME280;24974;54.444;18.560;2022-08-19T08:39:40;100963.31;;;28.83;54.64
28797;BME280;24974;54.444;18.560;2022-08-19T08:42:26;100959.53;;;28.66;54.71
28797;BME280;24974;54.444;18.560;2022-08-19T08:45:11;100964.09;;;28.84;54.15
28797;BME280;24974;54.444;18.560;2022-08-19T08:47:50;100951.28;;;29.26;53.12
28797;BME280;24974;54.444;18.560;2022-08-19T08:50:37;100954.75;;;29.37;53.29
28797;BME280;24974;54.444;18.560;2022-08-19T08:53:12;100954.50;;;29.05;52.63
28797;BME280;24974;54.444;18.560;2022-08-19T08:55:45;100958.09;;;28.82;53.18
28797;BME280;24974;54.444;18.560;2022-08-19T08:58:31;100957.50;;;28.94;53.85
28797;BME280;24974;54.444;18.560;2022-08-19T09:01:12;100948.84;;;29.28;52.55
28797;BME280;24974;54.444;18.560;2022-08-19T09:03:43;100951.06;;;29.17;53.91
28797;BME280;24974;54.444;18.560;2022-08-19T09:06:45;100947.31;;;29.43;53.20
28797;BME280;24974;54.444;18.560;2022-08-19T09:09:29;100944.50;;;29.87;51.68
28797;BME280;24974;54.444;18.560;2022-08-19T09:15:14;100941.06;;;29.75;52.62
28797;BME280;24974;54.444;18.560;2022-08-19T09:17:46;100936.22;;;29.96;52.08
28797;BME280;24974;54.444;18.560;2022-08-19T09:20:21;100937.53;;;30.11;51.33
28797;BME280;24974;54.444;18.560;2022-08-19T09:22:52;100927.19;;;30.21;51.00
28797;BME280;24974;54.444;18.560;2022-08-19T09:25:23;100936.31;;;30.48;50.67
28797;BME280;24974;54.444;18.560;2022-08-19T09:27:54;100935.41;;;29.95;52.84
28797;BME280;24974;54.444;18.560;2022-08-19T09:30:29;100929.91;;;29.88;53.56
28797;BME280;24974;54.444;18.560;2022-08-19T09:33:00;100941.06;;;29.75;54.29
28797;BME280;24974;54.444;18.560;2022-08-19T09:35:31;100939.25;;;29.65;54.99
28797;BME280;24974;54.444;18.560;2022-08-19T09:38:02;100943.47;;;28.60;57.39
28797;BME280;24974;54.444;18.560;2022-08-19T09:40:33;100934.91;;;29.80;54.94
28797;BME280;24974;54.444;18.560;2022-08-19T09:43:04;100925.81;;;29.49;55.94
28797;BME280;24974;54.444;18.560;2022-08-19T09:45:35;100931.41;;;29.73;56.36
28797;BME280;24974;54.444;18.560;2022-08-19T09:48:06;100926.00;;;30.54;53.83
28797;BME280;24974;54.444;18.560;2022-08-19T09:50:37;100920.56;;;30.96;53.33
28797;BME280;24974;54.444;18.560;2022-08-19T09:53:08;100916.84;;;30.83;53.25
28797;BME280;24974;54.444;18.560;2022-08-19T09:55:43;100916.47;;;31.30;52.15
28797;BME280;24974;54.444;18.560;2022-08-19T09:58:14;100918.88;;;30.82;52.66
28797;BME280;24974;54.444;18.560;2022-08-19T10:00:45;100917.53;;;30.71;53.01
28797;BME280;24974;54.444;18.560;2022-08-19T10:03:17;100912.66;;;30.87;52.70
28797;BME280;24974;54.444;18.560;2022-08-19T10:05:48;100915.22;;;30.49;53.81
28797;BME280;24974;54.444;18.560;2022-08-19T10:08:24;100909.66;;;30.78;53.02
28797;BME280;24974;54.444;18.560;2022-08-19T10:10:59;100914.19;;;30.76;52.88
28797;BME280;24974;54.444;18.560;2022-08-19T10:13:31;100913.81;;;31.52;51.32
28797;BME280;24974;54.444;18.560;2022-08-19T10:16:05;100909.78;;;31.20;52.10
28797;BME280;24974;54.444;18.560;2022-08-19T10:18:37;100907.28;;;31.67;50.64
28797;BME280;24974;54.444;18.560;2022-08-19T10:21:20;100900.00;;;31.66;50.49
28797;BME280;24974;54.444;18.560;2022-08-19T10:23:54;100905.66;;;30.92;53.24
28797;BME280;24974;54.444;18.560;2022-08-19T10:26:33;100891.47;;;31.95;51.25
28797;BME280;24974;54.444;18.560;2022-08-19T10:29:05;100891.03;;;30.77;53.23
28797;BME280;24974;54.444;18.560;2022-08-19T10:31:36;100890.53;;;30.66;53.70
28797;BME280;24974;54.444;18.560;2022-08-19T10:34:08;100882.88;;;30.11;55.83
28797;BME280;24974;54.444;18.560;2022-08-19T10:36:39;100885.03;;;30.23;55.60
28797;BME280;24974;54.444;18.560;2022-08-19T10:39:11;100882.25;;;30.72;55.06
28797;BME280;24974;54.444;18.560;2022-08-19T10:41:43;100875.38;;;30.73;55.08
28797;BME280;24974;54.444;18.560;2022-08-19T10:44:14;100879.75;;;30.41;55.23
28797;BME280;24974;54.444;18.560;2022-08-19T10:46:46;100880.13;;;30.59;54.67
28797;BME280;24974;54.444;18.560;2022-08-19T10:49:17;100878.38;;;31.27;53.18
28797;BME280;24974;54.444;18.560;2022-08-19T10:51:49;100878.06;;;31.09;53.27
28797;BME280;24974;54.444;18.560;2022-08-19T10:54:39;100874.91;;;32.58;49.27
28797;BME280;24974;54.444;18.560;2022-08-19T10:57:31;100875.72;;;32.58;49.16
28797;BME280;24974;54.444;18.560;2022-08-19T11:00:03;100860.28;;;32.94;47.98
28797;BME280;24974;54.444;18.560;2022-08-19T11:02:35;100864.09;;;32.01;49.89
28797;BME280;24974;54.444;18.560;2022-08-19T11:05:06;100862.53;;;32.51;49.63
28797;BME280;24974;54.444;18.560;2022-08-19T11:07:38;100857.22;;;33.88;46.17
28797;BME280;24974;54.444;18.560;2022-08-19T11:10:11;100849.19;;;34.27;44.63
28797;BME280;24974;54.444;18.560;2022-08-19T11:12:42;100854.97;;;33.83;44.72
28797;BME280;24974;54.444;18.560;2022-08-19T11:15:13;100849.63;;;33.85;45.36
28797;BME280;24974;54.444;18.560;2022-08-19T11:17:44;100836.41;;;34.41;45.11
28797;BME280;24974;54.444;18.560;2022-08-19T11:20:15;100828.03;;;34.46;44.79
28797;BME280;24974;54.444;18.560;2022-08-19T11:22:46;100831.00;;;33.93;45.78
28797;BME280;24974;54.444;18.560;2022-08-19T11:25:17;100827.31;;;34.24;45.10
28797;BME280;24974;54.444;18.560;2022-08-19T11:27:48;100822.03;;;34.63;44.03
28797;BME280;24974;54.444;18.560;2022-08-19T11:30:21;100827.19;;;35.04;43.33
28797;BME280;24974;54.444;18.560;2022-08-19T11:32:52;100819.97;;;34.54;44.77
28797;BME280;24974;54.444;18.560;2022-08-19T11:35:23;100820.22;;;35.24;42.96
28797;BME280;24974;54.444;18.560;2022-08-19T11:37:53;100819.50;;;34.65;44.27
28797;BME280;24974;54.444;18.560;2022-08-19T11:40:24;100819.88;;;35.13;43.83
28797;BME280;24974;54.444;18.560;2022-08-19T11:42:55;100822.94;;;33.70;47.26
28797;BME280;24974;54.444;18.560;2022-08-19T11:45:27;100822.13;;;35.09;43.70
28797;BME280;24974;54.444;18.560;2022-08-19T11:47:59;100819.56;;;35.38;43.10
28797;BME280;24974;54.444;18.560;2022-08-19T11:50:30;100811.34;;;35.22;42.66
28797;BME280;24974;54.444;18.560;2022-08-19T11:53:01;100807.53;;;35.16;42.66
28797;BME280;24974;54.444;18.560;2022-08-19T11:55:32;100802.84;;;34.63;44.03
28797;BME280;24974;54.444;18.560;2022-08-19T11:58:03;100794.50;;;35.84;41.88
28797;BME280;24974;54.444;18.560;2022-08-19T12:00:38;100793.94;;;35.71;41.59
28797;BME280;24974;54.444;18.560;2022-08-19T12:03:09;100794.50;;;35.15;44.21
28797;BME280;24974;54.444;18.560;2022-08-19T12:05:40;100792.59;;;35.12;44.52
28797;BME280;24974;54.444;18.560;2022-08-19T12:08:11;100788.75;;;34.69;45.56
28797;BME280;24974;54.444;18.560;2022-08-19T12:10:43;100786.88;;;34.66;45.07
28797;BME280;24974;54.444;18.560;2022-08-19T12:13:15;100784.22;;;34.99;44.27
28797;BME280;24974;54.444;18.560;2022-08-19T12:15:49;100787.31;;;34.64;45.15
28797;BME280;24974;54.444;18.560;2022-08-19T12:18:20;100782.44;;;35.01;44.70
28797;BME280;24974;54.444;18.560;2022-08-19T12:20:52;100763.25;;;34.74;43.99
28797;BME280;24974;54.444;18.560;2022-08-19T12:23:24;100770.34;;;34.61;44.96
28797;BME280;24974;54.444;18.560;2022-08-19T12:25:55;100774.19;;;35.13;44.66
28797;BME280;24974;54.444;18.560;2022-08-19T12:28:27;100776.47;;;36.11;42.60
28797;BME280;24974;54.444;18.560;2022-08-19T12:30:58;100776.03;;;35.52;42.60
28797;BME280;24974;54.444;18.560;2022-08-19T12:33:29;100769.72;;;35.39;42.88
28797;BME280;24974;54.444;18.560;2022-08-19T12:36:04;100765.03;;;36.11;41.87
28797;BME280;24974;54.444;18.560;2022-08-19T12:38:37;100771.03;;;34.25;46.09
28797;BME280;24974;54.444;18.560;2022-08-19T12:41:11;100770.81;;;35.51;42.69
28797;BME280;24974;54.444;18.560;2022-08-19T12:43:42;100762.06;;;35.45;43.41
28797;BME280;24974;54.444;18.560;2022-08-19T12:46:13;100767.34;;;35.19;43.72
28797;BME280;24974;54.444;18.560;2022-08-19T12:48:44;100761.47;;;35.83;42.26
28797;BME280;24974;54.444;18.560;2022-08-19T12:51:18;100750.53;;;35.21;43.43
28797;BME280;24974;54.444;18.560;2022-08-19T12:53:51;100745.22;;;34.19;43.53
28797;BME280;24974;54.444;18.560;2022-08-19T12:56:23;100740.00;;;33.24;46.67
28797;BME280;24974;54.444;18.560;2022-08-19T12:58:54;100740.63;;;34.21;45.25
28797;BME280;24974;54.444;18.560;2022-08-19T13:01:25;100736.78;;;34.15;44.93
28797;BME280;24974;54.444;18.560;2022-08-19T13:03:56;100740.59;;;33.72;45.17
28797;BME280;24974;54.444;18.560;2022-08-19T13:06:27;100747.25;;;34.09;45.19
28797;BME280;24974;54.444;18.560;2022-08-19T13:08:58;100727.06;;;32.89;48.31
28797;BME280;24974;54.444;18.560;2022-08-19T13:11:29;100736.63;;;31.87;49.59
28797;BME280;24974;54.444;18.560;2022-08-19T13:14:03;100725.03;;;31.82;49.97